Time;durP1;ratioP1;P1;durP2;ratioP2;P2;SDS_P1;SDS_P2;PMS_P1;PMS_P2;Temp;Humidity;BMP_temperature;BMP_pressure;BME280_temperature;BME280_humidity;BME280_pressure;Samples;Min_cycle;Max_cycle;Signal;HPM_P1;HPM_P2
2023/10/18 00:00:33;;;;;;;7.35;1.55;;;;;;;10.95;100.00;100820.72;5037717;28;20127;-68
2023/10/18 00:03:03;;;;;;;7.05;1.83;;;;;;;10.91;100.00;100819.16;5065457;28;20051;-68
2023/10/18 00:05:31;;;;;;;5.60;1.50;;;;;;;10.95;100.00;100810.25;5051270;28;20132;-68
2023/10/18 00:07:59;;;;;;;5.38;1.60;;;;;;;10.92;100.00;100805.13;5050937;28;20055;-68
2023/10/18 00:10:30;;;;;;;5.45;1.30;;;;;;;11.04;100.00;100811.66;5043277;28;20044;-68
2023/10/18 00:12:58;;;;;;;5.30;1.38;;;;;;;11.04;100.00;100798.56;5070209;28;20082;-68
2023/10/18 00:15:25;;;;;;;6.20;1.50;;;;;;;10.92;100.00;100807.75;5056179;28;20044;-68
2023/10/18 00:17:52;;;;;;;9.73;1.75;;;;;;;10.97;100.00;100803.19;5058971;28;20053;-68
2023/10/18 00:20:23;;;;;;;5.05;1.35;;;;;;;10.95;100.00;100798.00;5068864;28;20055;-68
2023/10/18 00:22:50;;;;;;;11.50;2.17;;;;;;;10.99;100.00;100781.25;5071164;28;20056;-67
2023/10/18 00:25:19;;;;;;;7.60;1.73;;;;;;;10.86;100.00;100793.13;5070713;28;20082;-68
2023/10/18 00:27:47;;;;;;;4.35;1.27;;;;;;;10.93;100.00;100794.59;5062195;28;20417;-68
2023/10/18 00:30:17;;;;;;;8.63;1.40;;;;;;;10.96;100.00;100793.59;5057005;28;20045;-68
2023/10/18 00:32:45;;;;;;;4.40;1.40;;;;;;;10.98;100.00;100791.81;5051701;28;20126;-68
2023/10/18 00:35:21;;;;;;;5.97;1.50;;;;;;;11.05;100.00;100787.16;5050876;28;20539;-68
2023/10/18 00:37:57;;;;;;;4.38;1.42;;;;;;;11.14;100.00;100784.19;5050280;28;20434;-68
2023/10/18 00:45:50;;;;;;;10.45;1.48;;;;;;;10.94;100.00;100764.00;5057019;28;20049;-69
2023/10/18 00:48:23;;;;;;;7.70;2.00;;;;;;;11.11;100.00;100765.97;5056615;28;20409;-69
2023/10/18 00:50:55;;;;;;;6.38;1.45;;;;;;;11.10;100.00;100766.88;5070540;28;20058;-68
2023/10/18 00:53:24;;;;;;;7.13;1.40;;;;;;;11.13;100.00;100759.75;5070334;28;20136;-68
2023/10/18 00:55:59;;;;;;;8.95;1.73;;;;;;;10.95;100.00;100756.09;5069376;28;20132;-68
2023/10/18 00:58:31;;;;;;;6.53;1.70;;;;;;;11.01;100.00;100757.59;5070339;28;20049;-68
2023/10/18 01:01:05;;;;;;;6.97;1.57;;;;;;;11.09;100.00;100757.31;5070835;28;20056;-69
2023/10/18 01:03:32;;;;;;;5.25;1.40;;;;;;;11.20;100.00;100753.34;5051184;28;20053;-69
2023/10/18 01:06:08;;;;;;;5.32;1.40;;;;;;;11.23;100.00;100760.25;5060125;28;20059;-69
2023/10/18 01:08:38;;;;;;;5.65;1.40;;;;;;;11.23;100.00;100755.00;5069718;28;20092;-68
2023/10/18 01:11:07;;;;;;;7.40;1.88;;;;;;;11.07;100.00;100757.38;5070337;28;20044;-68
2023/10/18 01:13:37;;;;;;;6.95;1.60;;;;;;;11.12;100.00;100758.06;5070481;28;20691;-69
2023/10/18 01:16:14;;;;;;;10.10;1.45;;;;;;;11.29;100.00;100748.66;5066800;28;20123;-69
2023/10/18 01:18:47;;;;;;;6.32;1.33;;;;;;;11.12;100.00;100744.06;5058406;28;20414;-69
2023/10/18 01:21:25;;;;;;;8.25;1.55;;;;;;;11.14;100.00;100750.97;5070246;28;20113;-69
2023/10/18 01:23:54;;;;;;;7.95;1.42;;;;;;;11.00;100.00;100740.19;5065023;28;20132;-69
2023/10/18 01:26:26;;;;;;;7.43;1.52;;;;;;;11.01;100.00;100737.53;5057907;28;20055;-68
2023/10/18 01:28:54;;;;;;;4.53;1.48;;;;;;;11.12;100.00;100741.47;5064206;28;20052;-69
2023/10/18 01:31:22;;;;;;;10.00;1.85;;;;;;;11.25;100.00;100726.13;5054325;28;20045;-68
2023/10/18 01:33:50;;;;;;;4.40;1.20;;;;;;;11.27;100.00;100724.28;5035936;28;20049;-69
2023/10/18 01:36:20;;;;;;;5.05;1.35;;;;;;;11.25;100.00;100731.34;5062770;28;20100;-68
2023/10/18 01:38:52;;;;;;;6.25;1.60;;;;;;;11.13;100.00;100725.69;5049781;28;20057;-68
2023/10/18 01:41:27;;;;;;;7.60;1.92;;;;;;;11.06;100.00;100726.00;5056273;28;20048;-68
2023/10/18 01:44:01;;;;;;;6.40;1.67;;;;;;;11.15;100.00;100704.66;5054791;28;20124;-68
2023/10/18 01:46:29;;;;;;;6.05;1.58;;;;;;;11.09;100.00;100703.13;5038313;28;20049;-68
2023/10/18 01:48:57;;;;;;;8.75;1.33;;;;;;;11.16;100.00;100703.75;5049547;28;20053;-68
2023/10/18 01:51:24;;;;;;;4.93;1.27;;;;;;;11.08;100.00;100711.06;5067776;28;20080;-68
2023/10/18 01:53:51;;;;;;;6.07;1.70;;;;;;;11.04;100.00;100705.09;5056521;28;20053;-69
2023/10/18 01:56:20;;;;;;;4.82;1.33;;;;;;;11.05;100.00;100701.56;5067468;28;20302;-69
2023/10/18 01:58:46;;;;;;;8.20;1.55;;;;;;;11.00;100.00;100690.41;5053791;28;20128;-69
2023/10/18 02:01:16;;;;;;;6.28;1.73;;;;;;;10.93;100.00;100683.72;5068504;28;20044;-68
2023/10/18 02:03:44;;;;;;;8.48;1.30;;;;;;;11.06;100.00;100694.56;5065008;28;20509;-69
2023/10/18 02:06:15;;;;;;;9.63;1.77;;;;;;;10.91;100.00;100667.22;5053103;28;20135;-68
2023/10/18 02:08:41;;;;;;;6.63;1.48;;;;;;;11.10;100.00;100688.25;5053599;28;20049;-68
2023/10/18 02:11:09;;;;;;;9.98;1.75;;;;;;;11.12;100.00;100681.19;5053663;28;20052;-68
2023/10/18 02:13:42;;;;;;;5.80;1.40;;;;;;;11.10;100.00;100677.78;5067304;28;20049;-69
2023/10/18 02:16:16;;;;;;;10.93;2.42;;;;;;;10.96;100.00;100671.34;5064179;28;20052;-68
2023/10/18 02:18:48;;;;;;;8.98;2.13;;;;;;;11.03;100.00;100669.34;5052978;28;20132;-68
2023/10/18 02:21:15;;;;;;;4.93;1.15;;;;;;;11.19;100.00;100672.16;5053212;28;20079;-68
2023/10/18 02:23:43;;;;;;;4.55;1.05;;;;;;;11.22;100.00;100658.94;5057811;28;20131;-68
2023/10/18 02:26:22;;;;;;;4.90;1.48;;;;;;;11.09;100.00;100663.84;5061941;28;20045;-68
2023/10/18 02:28:49;;;;;;;8.70;1.75;;;;;;;10.81;100.00;100651.84;5051714;28;20060;-68
2023/10/18 02:31:21;;;;;;;11.85;1.90;;;;;;;11.01;100.00;100656.31;5052298;28;20049;-68
2023/10/18 02:33:48;;;;;;;9.55;1.48;;;;;;;11.08;100.00;100662.13;5052037;28;20053;-68
2023/10/18 02:36:21;;;;;;;7.25;1.70;;;;;;;10.91;100.00;100636.63;5052510;28;20099;-69
2023/10/18 02:38:52;;;;;;;11.07;1.92;;;;;;;10.87;100.00;100628.94;5060457;28;20060;-68
2023/10/18 02:41:26;;;;;;;8.57;1.70;;;;;;;10.92;100.00;100635.69;5054276;28;20542;-69
2023/10/18 02:43:55;;;;;;;9.98;1.77;;;;;;;10.96;100.00;100633.78;5052734;28;20482;-69
2023/10/18 02:46:23;;;;;;;5.22;1.40;;;;;;;11.05;100.00;100627.34;5055431;28;20048;-68
2023/10/18 02:48:54;;;;;;;8.18;1.52;;;;;;;10.99;100.00;100626.66;5062600;28;20097;-68
2023/10/18 02:51:24;;;;;;;10.48;1.80;;;;;;;11.03;100.00;100630.03;5054192;28;20405;-69
2023/10/18 02:53:53;;;;;;;8.73;2.25;;;;;;;10.95;100.00;100624.25;5072538;28;20461;-69
2023/10/18 02:56:33;;;;;;;9.73;1.58;;;;;;;10.92;100.00;100622.59;5070401;28;20482;-69
2023/10/18 02:59:07;;;;;;;8.93;1.58;;;;;;;10.94;100.00;100612.06;5052433;28;20049;-69
2023/10/18 03:01:40;;;;;;;10.30;1.60;;;;;;;10.78;100.00;100611.84;5054936;28;20055;-68
2023/10/18 03:04:16;;;;;;;10.15;1.88;;;;;;;10.98;100.00;100597.94;5062262;28;20521;-68
2023/10/18 03:06:45;;;;;;;14.15;2.00;;;;;;;10.93;100.00;100599.91;5066386;28;20037;-69
2023/10/18 03:11:58;;;;;;;3.78;1.25;;;;;;;11.06;100.00;100587.97;5052345;28;20422;-69
2023/10/18 03:17:34;;;;;;;5.53;1.60;;;;;;;11.01;100.00;100579.44;5052091;28;20418;-69
2023/10/18 03:20:07;;;;;;;5.63;1.23;;;;;;;10.79;100.00;100574.25;5058744;28;20490;-69
2023/10/18 03:22:39;;;;;;;9.13;1.70;;;;;;;10.87;100.00;100564.34;5063083;28;20434;-68
2023/10/18 03:25:16;;;;;;;5.93;1.60;;;;;;;10.87;100.00;100561.72;5051770;28;20077;-68
2023/10/18 03:27:57;;;;;;;6.82;1.40;;;;;;;10.93;100.00;100564.06;5052120;28;20402;-68
2023/10/18 03:30:40;;;;;;;5.38;1.20;;;;;;;10.88;100.00;100538.97;5051395;28;20049;-69
2023/10/18 03:33:07;;;;;;;8.38;2.53;;;;;;;10.78;100.00;100549.84;5051392;28;20135;-69
2023/10/18 03:35:39;;;;;;;5.47;1.40;;;;;;;10.80;100.00;100552.38;5050494;28;20072;-69
2023/10/18 03:38:21;;;;;;;10.15;1.65;;;;;;;10.91;100.00;100546.72;5056478;28;20127;-68
2023/10/18 03:40:56;;;;;;;7.68;1.77;;;;;;;10.98;100.00;100535.91;5051292;28;20372;-68
2023/10/18 03:43:32;;;;;;;6.70;1.40;;;;;;;10.89;100.00;100538.06;5051007;28;20445;-69
2023/10/18 03:46:13;;;;;;;4.88;1.35;;;;;;;10.87;100.00;100535.53;5065084;28;20138;-68
2023/10/18 03:48:44;;;;;;;9.52;2.03;;;;;;;10.98;100.00;100517.56;5058645;28;20474;-68
2023/10/18 03:51:23;;;;;;;8.27;1.95;;;;;;;10.94;100.00;100515.13;5051037;28;20053;-68
2023/10/18 03:53:55;;;;;;;6.07;2.10;;;;;;;11.04;100.00;100526.94;5061063;28;20056;-68
2023/10/18 03:56:22;;;;;;;7.47;1.50;;;;;;;11.01;100.00;100525.31;5055804;28;20052;-68
2023/10/18 03:58:53;;;;;;;8.10;1.63;;;;;;;11.01;100.00;100512.22;5062644;28;20159;-68
2023/10/18 04:01:21;;;;;;;5.32;1.67;;;;;;;10.87;100.00;100504.09;5064785;28;20546;-68
2023/10/18 04:03:51;;;;;;;11.77;1.55;;;;;;;10.88;100.00;100500.53;5051115;28;20155;-68
2023/10/18 04:06:23;;;;;;;7.35;1.48;;;;;;;10.89;100.00;100504.88;5049933;28;20561;-68
2023/10/18 04:08:50;;;;;;;8.43;1.60;;;;;;;11.00;100.00;100499.16;5054792;28;20486;-69
2023/10/18 04:11:24;;;;;;;8.52;1.83;;;;;;;11.12;100.00;100490.78;5058156;28;20110;-68
2023/10/18 04:13:51;;;;;;;5.43;1.40;;;;;;;11.13;100.00;100487.22;5061729;28;20053;-68
2023/10/18 04:16:18;;;;;;;9.45;1.60;;;;;;;11.10;100.00;100476.91;5050894;28;20053;-69
2023/10/18 04:18:45;;;;;;;8.50;1.33;;;;;;;11.11;100.00;100468.09;5060650;28;20132;-69
2023/10/18 04:21:14;;;;;;;9.40;1.70;;;;;;;11.03;100.00;100478.09;5052597;28;20053;-69
2023/10/18 04:23:49;;;;;;;11.80;1.92;;;;;;;11.07;100.00;100458.69;5050847;28;20052;-69
2023/10/18 04:26:19;;;;;;;14.35;2.47;;;;;;;10.95;100.00;100462.69;5050410;28;20049;-68
2023/10/18 04:28:48;;;;;;;10.43;1.70;;;;;;;11.06;100.00;100462.22;5064495;28;20052;-68
2023/10/18 04:31:15;;;;;;;8.10;1.98;;;;;;;11.16;100.00;100458.28;5050402;28;20060;-68
2023/10/18 04:33:43;;;;;;;9.75;1.88;;;;;;;11.04;100.00;100447.50;5067033;28;20063;-68
2023/10/18 04:36:20;;;;;;;5.53;1.67;;;;;;;11.24;100.00;100454.47;5070489;28;20127;-69
2023/10/18 04:38:49;;;;;;;7.80;1.65;;;;;;;11.14;100.00;100446.16;5059092;28;20073;-69
2023/10/18 04:41:24;;;;;;;11.07;1.80;;;;;;;11.16;100.00;100446.94;5050255;28;20045;-68
2023/10/18 04:44:10;;;;;;;11.68;2.00;;;;;;;11.20;100.00;100451.13;5054213;28;20056;-68
2023/10/18 04:46:37;;;;;;;7.30;1.48;;;;;;;11.13;100.00;100436.59;5061092;28;20055;-69
2023/10/18 04:54:10;;;;;;;10.20;1.70;;;;;;;11.10;100.00;100436.72;5070060;28;19924;-68
2023/10/18 04:56:38;;;;;;;10.27;2.08;;;;;;;11.04;100.00;100418.66;5070549;28;20060;-69
2023/10/18 04:59:11;;;;;;;5.57;1.48;;;;;;;11.17;100.00;100436.41;5058189;28;20057;-69
2023/10/18 05:04:29;;;;;;;8.57;1.58;;;;;;;11.30;100.00;100425.38;5056144;28;20139;-69
2023/10/18 05:09:56;;;;;;;5.13;1.30;;;;;;;11.29;100.00;100414.00;5040218;28;20044;-69
2023/10/18 05:17:44;;;;;;;6.95;1.63;;;;;;;11.28;100.00;100393.09;5050336;28;20049;-69
2023/10/18 05:22:45;;;;;;;;;;;;;;;11.55;100.00;100399.69;5065466;28;20048;-69
2023/10/18 05:27:46;;;;;;;10.70;1.75;;;;;;;11.26;100.00;100385.34;5073034;28;20474;-69
2023/10/18 05:30:25;;;;;;;8.38;1.85;;;;;;;11.31;100.00;100378.09;5070485;28;20045;-69
2023/10/18 05:35:35;;;;;;;6.57;1.40;;;;;;;11.35;100.00;100363.94;5058320;28;20048;-68
2023/10/18 05:43:12;;;;;;;6.85;2.10;;;;;;;11.13;100.00;100350.97;5073794;28;20052;-69
2023/10/18 05:45:42;;;;;;;6.40;1.45;;;;;;;11.31;100.00;100362.38;5070320;28;20132;-68
2023/10/18 05:48:12;;;;;;;5.35;1.50;;;;;;;11.34;100.00;100353.53;5061981;28;20467;-68
2023/10/18 05:50:40;;;;;;;5.57;1.52;;;;;;;11.38;100.00;100355.06;5068052;28;20474;-68
2023/10/18 05:53:11;;;;;;;10.98;1.88;;;;;;;11.36;100.00;100354.31;5053938;28;20510;-69
2023/10/18 05:55:41;;;;;;;8.30;1.83;;;;;;;11.46;100.00;100344.25;5070765;28;20496;-69
2023/10/18 05:58:07;;;;;;;8.50;1.50;;;;;;;11.48;100.00;100347.63;5070543;28;20061;-69
2023/10/18 06:00:37;;;;;;;13.85;1.75;;;;;;;11.35;100.00;100339.47;5055367;28;20128;-69
2023/10/18 06:03:03;;;;;;;11.60;1.90;;;;;;;11.33;100.00;100349.19;5072874;28;20055;-69
2023/10/18 06:05:38;;;;;;;7.85;1.77;;;;;;;11.27;100.00;100336.38;5072645;28;20060;-68
2023/10/18 06:08:07;;;;;;;7.93;1.70;;;;;;;11.37;100.00;100333.25;5070325;28;20040;-68
2023/10/18 06:10:38;;;;;;;8.05;1.63;;;;;;;11.42;100.00;100337.44;5052755;28;20128;-68
2023/10/18 06:13:09;;;;;;;8.52;1.90;;;;;;;11.52;100.00;100342.16;5057206;28;20395;-68
2023/10/18 06:15:44;;;;;;;5.57;1.80;;;;;;;11.53;100.00;100340.41;5063125;28;20056;-68
2023/10/18 06:18:17;;;;;;;11.02;2.35;;;;;;;11.20;100.00;100333.19;5055758;28;20055;-68
2023/10/18 06:20:52;;;;;;;13.52;2.10;;;;;;;11.30;100.00;100338.88;5053387;28;20074;-69
2023/10/18 06:25:51;;;;;;;10.02;2.22;;;;;;;11.44;100.00;100330.34;5063294;28;20052;-68
2023/10/18 06:28:21;;;;;;;12.75;2.30;;;;;;;11.34;100.00;100328.16;5059315;28;20459;-68
2023/10/18 06:30:52;;;;;;;10.30;1.90;;;;;;;11.54;100.00;100329.84;5073401;28;20122;-69
2023/10/18 06:33:20;;;;;;;9.43;2.05;;;;;;;11.25;100.00;100320.72;5073100;28;20086;-68
2023/10/18 06:35:52;;;;;;;6.40;1.80;;;;;;;11.44;100.00;100330.34;5064417;28;20052;-69
2023/10/18 06:38:23;;;;;;;10.27;2.03;;;;;;;11.37;100.00;100328.03;5063401;28;20048;-69
2023/10/18 06:43:32;;;;;;;10.55;1.80;;;;;;;11.51;100.00;100329.13;5057307;28;20085;-69
2023/10/18 06:45:59;;;;;;;12.70;2.38;;;;;;;11.30;100.00;100318.75;5060456;28;20332;-68
2023/10/18 06:48:28;;;;;;;14.20;2.13;;;;;;;11.31;100.00;100309.94;5060495;28;20057;-68
2023/10/18 06:50:55;;;;;;;9.43;1.83;;;;;;;11.31;100.00;100293.38;5039004;28;20143;-69
2023/10/18 06:53:22;;;;;;;10.23;2.20;;;;;;;11.54;100.00;100308.00;5057845;28;20080;-68
2023/10/18 07:00:52;;;;;;;11.25;2.30;;;;;;;11.35;100.00;100310.66;5070256;28;20048;-68
2023/10/18 07:03:25;;;;;;;7.70;1.73;;;;;;;11.40;100.00;100313.91;5061330;28;20060;-69
2023/10/18 07:05:54;;;;;;;;;;;;;;;11.59;100.00;100314.72;5055536;28;20041;-69
2023/10/18 07:08:34;;;;;;;11.07;1.67;;;;;;;11.49;100.00;100316.09;5066875;28;19970;-69
2023/10/18 07:11:08;;;;;;;11.93;1.83;;;;;;;11.35;100.00;100303.66;5072469;28;20071;-69
2023/10/18 07:13:50;;;;;;;9.75;1.50;;;;;;;11.41;100.00;100307.75;5062922;28;20530;-68
2023/10/18 07:16:28;;;;;;;16.77;2.38;;;;;;;11.40;100.00;100313.91;5065533;28;20053;-69
2023/10/18 07:21:42;;;;;;;10.45;2.65;;;;;;;11.65;100.00;100304.84;5071526;28;20106;-68
2023/10/18 07:24:10;;;;;;;10.82;2.15;;;;;;;11.59;100.00;100293.75;5061330;28;20523;-69
2023/10/18 07:26:38;;;;;;;11.95;2.17;;;;;;;11.50;100.00;100311.72;5062420;28;20059;-69
2023/10/18 07:29:08;;;;;;;9.50;2.20;;;;;;;11.56;100.00;100306.16;5071848;28;20059;-68
2023/10/18 07:31:46;;;;;;;8.25;2.13;;;;;;;11.44;100.00;100298.88;5070488;28;20068;-69
2023/10/18 07:34:48;;;;;;;6.97;1.98;;;;;;;11.47;100.00;100290.88;5060383;28;20053;-68
2023/10/18 07:37:25;;;;;;;13.68;2.75;;;;;;;11.77;100.00;100297.25;5055272;28;20052;-69
2023/10/18 07:39:59;;;;;;;11.95;2.17;;;;;;;11.63;100.00;100296.22;5058294;28;20045;-69
2023/10/18 07:42:26;;;;;;;17.05;2.58;;;;;;;11.69;100.00;100286.28;5041633;28;20152;-68
2023/10/18 07:44:55;;;;;;;9.70;2.28;;;;;;;11.54;100.00;100287.03;5064230;28;20161;-68
2023/10/18 07:47:25;;;;;;;13.98;2.25;;;;;;;11.59;100.00;100285.88;5066843;28;20426;-68
2023/10/18 07:49:57;;;;;;;11.48;1.88;;;;;;;11.65;100.00;100281.25;5053543;28;20044;-69
2023/10/18 07:52:25;;;;;;;7.68;1.95;;;;;;;11.82;100.00;100277.81;5070224;28;20040;-68
2023/10/18 07:54:53;;;;;;;12.07;2.13;;;;;;;11.63;100.00;100273.47;5071537;28;20508;-69
2023/10/18 07:57:29;;;;;;;15.15;2.30;;;;;;;11.61;100.00;100275.31;5069643;28;20086;-69
2023/10/18 08:00:21;;;;;;;8.77;2.42;;;;;;;11.77;100.00;100276.28;5071519;28;20045;-69
2023/10/18 08:02:43;;;;;;;7.85;1.70;;;;;;;11.76;100.00;100271.09;5051815;28;20056;-68
2023/10/18 08:05:10;;;;;;;8.65;1.88;;;;;;;11.75;100.00;100259.75;5062824;28;20164;-69
2023/10/18 08:07:37;;;;;;;8.60;2.05;;;;;;;11.77;100.00;100276.28;5070321;28;20040;-68
2023/10/18 08:10:08;;;;;;;9.93;2.35;;;;;;;11.85;100.00;100252.28;5070598;28;20048;-68
2023/10/18 08:12:35;;;;;;;8.82;1.90;;;;;;;11.72;100.00;100259.91;5068657;28;20502;-69
2023/10/18 08:15:13;;;;;;;8.20;1.83;;;;;;;11.77;100.00;100263.16;5050512;28;20080;-68
2023/10/18 08:22:51;;;;;;;8.10;2.13;;;;;;;11.77;100.00;100238.69;5050960;28;20045;-68
2023/10/18 08:25:29;;;;;;;17.05;2.03;;;;;;;11.66;100.00;100217.41;5070806;28;20055;-68
2023/10/18 08:27:56;;;;;;;5.65;1.70;;;;;;;11.77;100.00;100230.81;5070450;28;20094;-67
2023/10/18 08:30:24;;;;;;;10.63;2.20;;;;;;;11.87;100.00;100225.97;5056400;28;20048;-68
2023/10/18 08:32:51;;;;;;;10.77;2.20;;;;;;;11.76;100.00;100227.34;5070838;28;20413;-68
2023/10/18 08:35:20;;;;;;;9.98;2.13;;;;;;;11.88;100.00;100222.41;5053922;28;20049;-69
2023/10/18 08:37:47;;;;;;;14.23;2.20;;;;;;;11.89;100.00;100217.06;5060723;28;20052;-68
2023/10/18 08:40:27;;;;;;;14.70;2.60;;;;;;;12.00;100.00;100219.19;5056448;28;20060;-68
2023/10/18 08:43:23;;;;;;;10.88;2.10;;;;;;;11.95;100.00;100211.56;5071011;28;20045;-68
2023/10/18 08:45:51;;;;;;;12.73;3.80;;;;;;;11.86;100.00;100211.13;5062695;28;20091;-68
2023/10/18 08:48:28;;;;;;;9.90;2.63;;;;;;;11.88;100.00;100185.66;5050903;28;20079;-68
2023/10/18 08:50:57;;;;;;;11.82;2.42;;;;;;;12.06;100.00;100190.00;5043505;28;20049;-68
2023/10/18 08:53:31;;;;;;;11.85;2.22;;;;;;;11.98;100.00;100191.34;5069508;28;20056;-68
2023/10/18 08:55:58;;;;;;;13.18;2.40;;;;;;;11.97;100.00;100193.13;5066051;28;20137;-68
2023/10/18 08:58:28;;;;;;;17.95;2.58;;;;;;;12.12;100.00;100194.09;5058944;28;20056;-69
2023/10/18 09:03:25;;;;;;;9.73;2.15;;;;;;;12.00;100.00;100185.06;5075240;28;20052;-69
2023/10/18 09:06:02;;;;;;;10.00;2.38;;;;;;;11.98;100.00;100186.94;5060433;28;20075;-68
2023/10/18 09:08:41;;;;;;;10.45;2.47;;;;;;;11.80;100.00;100154.59;5063456;28;20052;-68
2023/10/18 09:11:20;;;;;;;13.23;2.75;;;;;;;11.94;100.00;100181.00;5073248;28;20051;-69
2023/10/18 09:14:07;;;;;;;12.55;2.80;;;;;;;11.96;100.00;100175.66;5065658;28;20132;-69
2023/10/18 09:16:39;;;;;;;13.02;2.55;;;;;;;11.98;100.00;100165.94;5053509;28;20131;-68
2023/10/18 09:19:08;;;;;;;11.27;2.47;;;;;;;12.09;100.00;100175.88;5064582;28;20131;-68
2023/10/18 09:21:50;;;;;;;19.58;2.72;;;;;;;12.05;100.00;100161.22;5069841;28;20045;-69
2023/10/18 09:24:23;;;;;;;13.60;2.75;;;;;;;11.75;100.00;100148.75;5065272;28;20059;-69
2023/10/18 09:26:50;;;;;;;12.93;2.38;;;;;;;12.06;100.00;100171.66;5059186;28;20052;-69
2023/10/18 09:29:18;;;;;;;12.20;2.28;;;;;;;12.19;100.00;100171.00;5064698;28;20052;-68
2023/10/18 09:31:54;;;;;;;14.13;2.40;;;;;;;12.13;100.00;100174.81;5057430;28;20049;-68
2023/10/18 09:34:23;;;;;;;11.05;2.25;;;;;;;12.08;100.00;100174.19;5064050;28;20048;-68
2023/10/18 09:36:56;;;;;;;12.70;2.17;;;;;;;12.10;100.00;100160.03;5063112;28;20076;-68
2023/10/18 09:39:37;;;;;;;19.98;2.90;;;;;;;12.10;100.00;100161.84;5053748;28;20045;-69
2023/10/18 09:42:17;;;;;;;12.60;2.58;;;;;;;12.17;100.00;100167.59;5067856;28;20049;-69
2023/10/18 09:44:44;;;;;;;17.65;3.50;;;;;;;12.17;100.00;100162.38;5065201;28;20067;-68
2023/10/18 09:47:12;;;;;;;11.90;2.75;;;;;;;12.18;100.00;100153.53;5068669;28;20067;-68
2023/10/18 09:49:40;;;;;;;11.43;2.72;;;;;;;11.98;100.00;100139.69;5054387;28;20497;-69
2023/10/18 09:52:13;;;;;;;10.85;3.05;;;;;;;12.21;100.00;100138.47;5069564;28;20045;-69
2023/10/18 09:55:01;;;;;;;11.55;2.80;;;;;;;12.24;100.00;100142.72;5070486;28;20048;-68
2023/10/18 09:57:35;;;;;;;12.00;2.35;;;;;;;12.35;100.00;100135.09;5073107;28;20139;-69
2023/10/18 10:00:14;;;;;;;12.13;2.60;;;;;;;12.22;100.00;100144.59;5073375;28;20076;-69
2023/10/18 10:02:52;;;;;;;16.92;2.10;;;;;;;12.40;100.00;100137.50;5067930;28;20506;-69
2023/10/18 10:05:26;;;;;;;16.77;3.30;;;;;;;12.43;100.00;100126.81;5052947;28;20052;-68
2023/10/18 10:07:56;;;;;;;13.13;2.78;;;;;;;12.50;100.00;100130.78;5059699;28;20388;-69
2023/10/18 10:10:42;;;;;;;13.18;2.60;;;;;;;12.30;100.00;100122.22;5067301;28;20464;-69
2023/10/18 10:13:25;;;;;;;11.88;2.30;;;;;;;12.46;100.00;100126.63;5044680;28;20057;-68
2023/10/18 10:15:55;;;;;;;17.33;3.10;;;;;;;12.48;100.00;100119.53;5065583;28;20051;-69
2023/10/18 10:18:26;;;;;;;11.07;2.63;;;;;;;12.35;100.00;100114.94;5059152;28;20429;-68
2023/10/18 10:20:55;;;;;;;11.93;2.50;;;;;;;12.48;100.00;100119.53;5073856;28;20053;-69
2023/10/18 10:23:23;;;;;;;13.02;2.55;;;;;;;12.33;100.00;100108.94;5073236;28;20056;-69
2023/10/18 10:26:11;;;;;;;19.17;2.58;;;;;;;12.41;100.00;100100.66;5073341;28;20053;-69
2023/10/18 10:31:51;;;;;;;13.57;2.80;;;;;;;12.37;100.00;100104.38;5053651;28;20064;-69
2023/10/18 10:34:32;;;;;;;16.08;3.05;;;;;;;12.56;100.00;100098.94;5073226;28;20117;-69
2023/10/18 10:37:08;;;;;;;15.40;3.47;;;;;;;12.52;100.00;100093.03;5058583;28;20048;-69
2023/10/18 10:39:44;;;;;;;8.77;2.60;;;;;;;12.71;100.00;100077.06;5072926;28;20045;-68
2023/10/18 10:42:19;;;;;;;17.45;3.70;;;;;;;12.55;100.00;100092.00;5068273;28;20525;-69
2023/10/18 10:45:09;;;;;;;16.52;3.40;;;;;;;12.67;100.00;100075.53;5064680;28;20389;-69
2023/10/18 10:47:42;;;;;;;14.27;3.03;;;;;;;12.52;100.00;100079.88;5045652;28;20085;-69
2023/10/18 10:50:10;;;;;;;17.08;2.63;;;;;;;12.48;100.00;100067.88;5066902;28;20087;-69
2023/10/18 10:52:41;;;;;;;11.30;2.80;;;;;;;12.58;100.00;100059.47;5066078;28;20052;-69
2023/10/18 10:55:22;;;;;;;11.88;2.83;;;;;;;12.53;100.00;100057.09;5052514;28;20487;-69
2023/10/18 10:57:50;;;;;;;14.27;3.00;;;;;;;12.66;100.00;100042.34;5052143;28;20053;-69
2023/10/18 11:03:53;;;;;;;14.75;3.05;;;;;;;12.88;100.00;100046.34;5048350;28;20470;-69
2023/10/18 11:06:23;;;;;;;11.00;2.63;;;;;;;12.94;100.00;100043.34;5009919;28;20053;-69
2023/10/18 11:08:52;;;;;;;13.93;3.45;;;;;;;12.85;100.00;100041.28;4997074;28;20134;-68
2023/10/18 11:11:22;;;;;;;16.67;3.60;;;;;;;12.76;100.00;100032.13;5033438;28;20473;-69
2023/10/18 11:13:50;;;;;;;11.10;2.95;;;;;;;12.83;100.00;100040.53;5063389;28;20063;-68
2023/10/18 11:16:24;;;;;;;12.40;3.08;;;;;;;12.77;100.00;100033.00;5067365;28;20052;-68
2023/10/18 11:18:52;;;;;;;14.98;2.92;;;;;;;12.62;100.00;100026.84;5064412;28;20106;-69
2023/10/18 11:21:24;;;;;;;11.77;3.03;;;;;;;12.71;100.00;100027.16;5066565;28;20049;-68
2023/10/18 11:24:02;;;;;;;13.95;2.63;;;;;;;12.69;100.00;100010.63;5071601;28;20060;-68
2023/10/18 11:26:29;;;;;;;10.90;2.55;;;;;;;12.70;100.00;100022.84;5071858;28;20068;-70
2023/10/18 11:28:59;;;;;;;11.25;2.25;;;;;;;12.47;100.00;100013.66;5064453;28;20057;-69
2023/10/18 11:31:26;;;;;;;14.48;2.53;;;;;;;12.64;100.00;99998.72;5051770;28;20237;-69
2023/10/18 11:34:05;;;;;;;11.93;3.15;;;;;;;12.63;100.00;99991.78;5057881;28;20477;-69
2023/10/18 11:36:34;;;;;;;14.23;2.78;;;;;;;12.73;100.00;99987.69;5071720;28;20071;-69
2023/10/18 11:39:07;;;;;;;16.98;2.63;;;;;;;12.62;100.00;99997.94;5044809;28;20478;-69
2023/10/18 11:41:35;;;;;;;10.45;2.83;;;;;;;12.78;100.00;99984.78;5058470;28;20049;-68
2023/10/18 11:44:08;;;;;;;13.55;2.90;;;;;;;12.93;100.00;99976.00;5070023;28;20076;-69
2023/10/18 11:46:47;;;;;;;;;;;;;;;12.82;100.00;99981.88;5053474;28;20053;-69
2023/10/18 11:49:15;;;;;;;10.45;2.72;;;;;;;12.62;100.00;99975.16;5051888;28;20402;-69
2023/10/18 11:51:43;;;;;;;11.90;2.70;;;;;;;12.71;100.00;99971.16;5064356;28;20067;-69
2023/10/18 11:54:12;;;;;;;14.65;2.90;;;;;;;12.40;100.00;99972.09;5071578;28;20047;-69
2023/10/18 11:56:39;;;;;;;15.95;3.80;;;;;;;12.72;100.00;99976.31;5071377;28;20067;-69
2023/10/18 11:59:05;;;;;;;15.98;2.83;;;;;;;12.58;100.00;99967.56;5071706;28;20040;-69
2023/10/18 12:01:37;;;;;;;14.73;3.63;;;;;;;12.70;100.00;99951.91;5071711;28;20049;-69
2023/10/18 12:04:06;;;;;;;14.02;2.95;;;;;;;12.69;100.00;99949.38;5068919;28;20449;-69
2023/10/18 12:06:34;;;;;;;10.90;2.80;;;;;;;12.71;100.00;99947.50;5051288;28;20114;-68
2023/10/18 12:11:39;;;;;;;14.50;3.38;;;;;;;12.71;100.00;99945.75;5060202;28;20051;-69
2023/10/18 12:14:07;;;;;;;19.00;4.07;;;;;;;12.77;100.00;99941.06;5060006;28;20503;-69
2023/10/18 12:16:35;;;;;;;20.10;4.18;;;;;;;12.73;100.00;99932.53;5049430;28;20051;-68
2023/10/18 12:19:02;;;;;;;20.42;4.68;;;;;;;12.62;100.00;99927.03;5060375;28;20406;-69
2023/10/18 12:21:31;;;;;;;18.80;4.10;;;;;;;12.58;100.00;99922.91;5069016;28;20713;-68
2023/10/18 12:23:58;;;;;;;14.02;3.03;;;;;;;12.40;100.00;99917.81;5059667;28;20051;-69
2023/10/18 12:26:25;;;;;;;16.45;3.15;;;;;;;12.62;100.00;99921.78;5070965;28;20052;-69
2023/10/18 12:28:52;;;;;;;19.13;3.95;;;;;;;12.33;100.00;99898.09;5070789;28;20049;-69
2023/10/18 12:31:26;;;;;;;13.68;2.58;;;;;;;12.43;100.00;99898.38;5070995;28;20053;-69
2023/10/18 12:33:58;;;;;;;14.20;3.22;;;;;;;12.47;100.00;99905.19;5049620;28;20410;-69
2023/10/18 12:36:38;;;;;;;12.95;2.75;;;;;;;12.45;100.00;99907.06;5052283;28;20053;-69
2023/10/18 12:39:20;;;;;;;16.42;3.42;;;;;;;12.55;100.00;99913.44;5037642;28;20463;-68
2023/10/18 12:41:53;;;;;;;18.30;3.28;;;;;;;12.69;100.00;99904.72;5051794;28;20049;-69
2023/10/18 12:44:20;;;;;;;13.50;2.95;;;;;;;12.84;100.00;99890.69;5071290;28;20110;-69